Terminal Aerodrome Forecast
Issued by NWS Omaha/Valley, NE

Home | Current Version | Previous Version | Text Only | Print | Product List | Glossary On
Versions: 1 2 3 4 5 6 7 8 9 10 11 12 13 14 15 16 17 18 19 20 21 22
000
FTUS43 KOAX 290520
TAFLNK
TAF
KLNK 290520Z 2906/3006 04008KT 6SM -RA OVC025
     FM291100 05011KT 4SM RA OVC008
      TEMPO 2911/2914 2SM +RA
     FM291400 05012KT 4SM RA OVC015
     FM300100 03015G24KT 3SM SHRA OVC008=

USA.gov is the U.S. government's official web portal to all federal, state and local government web resources and services.